Home > Products > Valid Products > TAF

000
FTUS43 KMKX 012004 AAB
TAFMKE
TAF AMD
KMKE 012004Z 0120/0224 23010G15KT P6SM SCT025
     FM012200 25010KT P6SM SCT025
     FM020300 27010KT P6SM SCT120
     FM021200 30008KT P6SM SKC
     FM021700 31004KT P6SM FEW250=



000
FTUS43 KMKX 012003 AAB
TAFMSN
TAF AMD
KMSN 012003Z 0120/0218 24010G15KT P6SM SCT025
     FM012200 25010KT P6SM SCT025
     FM020100 27008KT P6SM SCT120
     FM021600 31004KT P6SM FEW250=



000
FTUS43 KMKX 012003 AAB
TAFMSN
TAF AMD
KMSN 012003Z 0120/0218 24010G15KT P6SM SCT025
     FM012200 25010KT P6SM SCT025
     FM020100 27008KT P6SM SCT120
     FM021600 31004KT P6SM FEW250=



000
FTUS43 KMKX 011901 AAA
TAFMKE
TAF AMD
KMKE 011901Z 0119/0224 23010G15KT P6SM SCT025
     FM012200 25010KT P6SM BKN035
     FM020300 27010KT P6SM SCT120
     FM021200 30008KT P6SM SKC
     FM021700 31004KT P6SM FEW250=



000
FTUS43 KMKX 011901 AAA
TAFMKE
TAF AMD
KMKE 011901Z 0119/0224 23010G15KT P6SM SCT025
     FM012200 25010KT P6SM BKN035
     FM020300 27010KT P6SM SCT120
     FM021200 30008KT P6SM SKC
     FM021700 31004KT P6SM FEW250=



000
FTUS43 KMKX 011901 AAA
TAFMKE
TAF AMD
KMKE 011901Z 0119/0224 23010G15KT P6SM SCT025
     FM012200 25010KT P6SM BKN035
     FM020300 27010KT P6SM SCT120
     FM021200 30008KT P6SM SKC
     FM021700 31004KT P6SM FEW250=



000
FTUS43 KMKX 011901 AAA
TAFMKE
TAF AMD
KMKE 011901Z 0119/0224 23010G15KT P6SM SCT025
     FM012200 25010KT P6SM BKN035
     FM020300 27010KT P6SM SCT120
     FM021200 30008KT P6SM SKC
     FM021700 31004KT P6SM FEW250=



000
FTUS43 KMKX 011859 AAA
TAFMSN
TAF AMD
KMSN 011859Z 0119/0218 24010G15KT P6SM BKN025
     FM012200 25009KT P6SM BKN035
     FM020100 27008KT P6SM SCT120
     FM021600 31004KT P6SM FEW250=



000
FTUS43 KMKX 011859 AAA
TAFMSN
TAF AMD
KMSN 011859Z 0119/0218 24010G15KT P6SM BKN025
     FM012200 25009KT P6SM BKN035
     FM020100 27008KT P6SM SCT120
     FM021600 31004KT P6SM FEW250=



000
FTUS43 KMKX 011859 AAA
TAFMSN
TAF AMD
KMSN 011859Z 0119/0218 24010G15KT P6SM BKN025
     FM012200 25009KT P6SM BKN035
     FM020100 27008KT P6SM SCT120
     FM021600 31004KT P6SM FEW250=



000
FTUS43 KMKX 011859 AAA
TAFMSN
TAF AMD
KMSN 011859Z 0119/0218 24010G15KT P6SM BKN025
     FM012200 25009KT P6SM BKN035
     FM020100 27008KT P6SM SCT120
     FM021600 31004KT P6SM FEW250=



000
FTUS43 KMKX 011731
TAFMSN
TAF
KMSN 011731Z 0118/0218 21008KT P6SM SCT025 BKN200
     FM012000 24009KT P6SM BKN025
     FM012200 25009KT P6SM BKN035
     FM020100 27008KT P6SM SCT120
     FM021600 31004KT P6SM FEW250=



000
FTUS43 KMKX 011731
TAFMSN
TAF
KMSN 011731Z 0118/0218 21008KT P6SM SCT025 BKN200
     FM012000 24009KT P6SM BKN025
     FM012200 25009KT P6SM BKN035
     FM020100 27008KT P6SM SCT120
     FM021600 31004KT P6SM FEW250=



000
FTUS43 KMKX 011731
TAFMKE
TAF
KMKE 011731Z 0118/0224 23009KT 6SM HZ BKN018
     FM012000 24009KT P6SM BKN025
     FM012300 25009KT P6SM BKN035
     FM020300 27010KT P6SM SCT120
     FM021200 30008KT P6SM SKC
     FM021700 31004KT P6SM FEW250=



000
FTUS43 KMKX 011731
TAFMKE
TAF
KMKE 011731Z 0118/0224 23009KT 6SM HZ BKN018
     FM012000 24009KT P6SM BKN025
     FM012300 25009KT P6SM BKN035
     FM020300 27010KT P6SM SCT120
     FM021200 30008KT P6SM SKC
     FM021700 31004KT P6SM FEW250=



000
FTUS43 KMKX 011731
TAFMSN
TAF
KMSN 011731Z 0118/0218 21008KT P6SM SCT025 BKN200
     FM012000 24009KT P6SM BKN025
     FM012200 25009KT P6SM BKN035
     FM020100 27008KT P6SM SCT120
     FM021600 31004KT P6SM FEW250=



000
FTUS43 KMKX 011731
TAFMSN
TAF
KMSN 011731Z 0118/0218 21008KT P6SM SCT025 BKN200
     FM012000 24009KT P6SM BKN025
     FM012200 25009KT P6SM BKN035
     FM020100 27008KT P6SM SCT120
     FM021600 31004KT P6SM FEW250=



000
FTUS43 KMKX 011731
TAFMKE
TAF
KMKE 011731Z 0118/0224 23009KT 6SM HZ BKN018
     FM012000 24009KT P6SM BKN025
     FM012300 25009KT P6SM BKN035
     FM020300 27010KT P6SM SCT120
     FM021200 30008KT P6SM SKC
     FM021700 31004KT P6SM FEW250=



000
FTUS43 KMKX 011731
TAFMKE
TAF
KMKE 011731Z 0118/0224 23009KT 6SM HZ BKN018
     FM012000 24009KT P6SM BKN025
     FM012300 25009KT P6SM BKN035
     FM020300 27010KT P6SM SCT120
     FM021200 30008KT P6SM SKC
     FM021700 31004KT P6SM FEW250=



000
FTUS43 KMKX 011658 AAE
TAFMKE
TAF AMD
KMKE 011658Z 0117/0218 24008KT 6SM HZ SCT015 BKN035
     FM011800 24009KT P6SM BKN035
     FM012100 24010KT P6SM BKN040
     FM020300 27010KT P6SM SCT120
     FM021200 30008KT P6SM SKC=



000
FTUS43 KMKX 011658 AAE
TAFMKE
TAF AMD
KMKE 011658Z 0117/0218 24008KT 6SM HZ SCT015 BKN035
     FM011800 24009KT P6SM BKN035
     FM012100 24010KT P6SM BKN040
     FM020300 27010KT P6SM SCT120
     FM021200 30008KT P6SM SKC=



000
FTUS43 KMKX 011604 AAD
TAFMKE
TAF AMD
KMKE 011604Z 0116/0218 24006KT 4SM HZ SCT025 BKN100
      TEMPO 0116/0118 6SM HZ
     FM011800 24006KT P6SM BKN035
     FM012100 24010KT P6SM BKN040
     FM020300 27010KT P6SM SCT120
     FM021200 30008KT P6SM SKC=



000
FTUS43 KMKX 011604 AAD
TAFMKE
TAF AMD
KMKE 011604Z 0116/0218 24006KT 4SM HZ SCT025 BKN100
      TEMPO 0116/0118 6SM HZ
     FM011800 24006KT P6SM BKN035
     FM012100 24010KT P6SM BKN040
     FM020300 27010KT P6SM SCT120
     FM021200 30008KT P6SM SKC=



000
FTUS43 KMKX 011604 AAD
TAFMKE
TAF AMD
KMKE 011604Z 0116/0218 24006KT 4SM HZ SCT025 BKN100
      TEMPO 0116/0118 6SM HZ
     FM011800 24006KT P6SM BKN035
     FM012100 24010KT P6SM BKN040
     FM020300 27010KT P6SM SCT120
     FM021200 30008KT P6SM SKC=



000
FTUS43 KMKX 011604 AAD
TAFMKE
TAF AMD
KMKE 011604Z 0116/0218 24006KT 4SM HZ SCT025 BKN100
      TEMPO 0116/0118 6SM HZ
     FM011800 24006KT P6SM BKN035
     FM012100 24010KT P6SM BKN040
     FM020300 27010KT P6SM SCT120
     FM021200 30008KT P6SM SKC=



000
FTUS43 KMKX 011557 AAC
TAFMSN
TAF AMD
KMSN 011557Z 0116/0212 22006KT P6SM BKN025
     FM011800 23006KT P6SM BKN035
     FM020100 27008KT P6SM SCT100=



000
FTUS43 KMKX 011536 AAC
TAFMKE
TAF AMD
KMKE 011536Z 0116/0218 26006KT 3SM BR SCT007 BKN200
      TEMPO 0116/0118 5SM BR
     FM011800 24006KT P6SM BKN035
     FM012100 24010KT P6SM BKN040
     FM020300 27010KT P6SM SCT120
     FM021200 30008KT P6SM SKC=



000
FTUS43 KMKX 011536 AAC
TAFMKE
TAF AMD
KMKE 011536Z 0116/0218 26006KT 3SM BR SCT007 BKN200
      TEMPO 0116/0118 5SM BR
     FM011800 24006KT P6SM BKN035
     FM012100 24010KT P6SM BKN040
     FM020300 27010KT P6SM SCT120
     FM021200 30008KT P6SM SKC=



000
FTUS43 KMKX 011536 AAC
TAFMKE
TAF AMD
KMKE 011536Z 0116/0218 26006KT 3SM BR SCT007 BKN200
      TEMPO 0116/0118 5SM BR
     FM011800 24006KT P6SM BKN035
     FM012100 24010KT P6SM BKN040
     FM020300 27010KT P6SM SCT120
     FM021200 30008KT P6SM SKC=



000
FTUS43 KMKX 011536 AAC
TAFMKE
TAF AMD
KMKE 011536Z 0116/0218 26006KT 3SM BR SCT007 BKN200
      TEMPO 0116/0118 5SM BR
     FM011800 24006KT P6SM BKN035
     FM012100 24010KT P6SM BKN040
     FM020300 27010KT P6SM SCT120
     FM021200 30008KT P6SM SKC=



000
FTUS43 KMKX 011444 AAB
TAFMKE
TAF AMD
KMKE 011444Z 0115/0218 23005KT 2SM BR BKN006
      TEMPO 0115/0118 5SM BR SCT006 BKN200
     FM011800 24006KT P6SM BKN035
     FM012100 24010KT P6SM BKN040
     FM020300 27010KT P6SM SCT120
     FM021200 30008KT P6SM SKC
     FM021700 31004KT P6SM FEW200=



000
FTUS43 KMKX 011444 AAB
TAFMKE
TAF AMD
KMKE 011444Z 0115/0218 23005KT 2SM BR BKN006
      TEMPO 0115/0118 5SM BR SCT006 BKN200
     FM011800 24006KT P6SM BKN035
     FM012100 24010KT P6SM BKN040
     FM020300 27010KT P6SM SCT120
     FM021200 30008KT P6SM SKC
     FM021700 31004KT P6SM FEW200=



000
FTUS43 KMKX 011442 AAB
TAFMSN
TAF AMD
KMSN 011442Z 0115/0212 24004KT P6SM SCT010 OVC200
     FM011800 23006KT P6SM BKN035
     FM020100 27008KT P6SM SCT100=



000
FTUS43 KMKX 011442 AAB
TAFMSN
TAF AMD
KMSN 011442Z 0115/0212 24004KT P6SM SCT010 OVC200
     FM011800 23006KT P6SM BKN035
     FM020100 27008KT P6SM SCT100=



000
FTUS43 KMKX 011313 AAA
TAFMKE
TAF AMD
KMKE 011313Z 0113/0218 21003KT 2SM BR OVC005
      TEMPO 0113/0114 1 1/2SM BR
     FM011500 23005KT 4SM BR BKN025
     FM011700 24006KT P6SM BKN035
     FM012100 24010KT P6SM BKN040
     FM020300 27010KT P6SM SCT120
     FM021200 30008KT P6SM SKC
     FM021700 31004KT P6SM FEW200=



000
FTUS43 KMKX 011313 AAA
TAFMKE
TAF AMD
KMKE 011313Z 0113/0218 21003KT 2SM BR OVC005
      TEMPO 0113/0114 1 1/2SM BR
     FM011500 23005KT 4SM BR BKN025
     FM011700 24006KT P6SM BKN035
     FM012100 24010KT P6SM BKN040
     FM020300 27010KT P6SM SCT120
     FM021200 30008KT P6SM SKC
     FM021700 31004KT P6SM FEW200=



000
FTUS43 KMKX 011313 AAA
TAFMKE
TAF AMD
KMKE 011313Z 0113/0218 21003KT 2SM BR OVC005
      TEMPO 0113/0114 1 1/2SM BR
     FM011500 23005KT 4SM BR BKN025
     FM011700 24006KT P6SM BKN035
     FM012100 24010KT P6SM BKN040
     FM020300 27010KT P6SM SCT120
     FM021200 30008KT P6SM SKC
     FM021700 31004KT P6SM FEW200=



000
FTUS43 KMKX 011304 AAA
TAFMSN
TAF AMD
KMSN 011304Z 0113/0212 24004KT P6SM SCT011 OVC200
      TEMPO 0113/0114 6SM -SN BKN011
     FM011600 23006KT P6SM BKN035
     FM020100 27008KT P6SM SCT100=



000
FTUS43 KMKX 011304 AAA
TAFMSN
TAF AMD
KMSN 011304Z 0113/0212 24004KT P6SM SCT011 OVC200
      TEMPO 0113/0114 6SM -SN BKN011
     FM011600 23006KT P6SM BKN035
     FM020100 27008KT P6SM SCT100=



000
FTUS43 KMKX 011304 AAA
TAFMSN
TAF AMD
KMSN 011304Z 0113/0212 24004KT P6SM SCT011 OVC200
      TEMPO 0113/0114 6SM -SN BKN011
     FM011600 23006KT P6SM BKN035
     FM020100 27008KT P6SM SCT100=



000
FTUS43 KMKX 011133
TAFMKE
TAF
KMKE 011133Z 0112/0218 24004KT P6SM SCT007 BKN025
      TEMPO 0112/0113 BKN007
     FM011600 24006KT P6SM OVC035
     FM012100 24010KT P6SM OVC040
     FM020300 27010KT P6SM SCT120
     FM021200 30008KT P6SM SKC
     FM021700 31004KT P6SM FEW200=



000
FTUS43 KMKX 011133
TAFMSN
TAF
KMSN 011133Z 0112/0212 VRB03KT 5SM -SHSN SCT011 OVC020
      TEMPO 0112/0114 BKN011
     FM011400 21004KT P6SM BKN025
     FM011600 23006KT P6SM BKN035
     FM020100 27008KT P6SM SCT100=



000
FTUS43 KMKX 011133
TAFMKE
TAF
KMKE 011133Z 0112/0218 24004KT P6SM SCT007 BKN025
      TEMPO 0112/0113 BKN007
     FM011600 24006KT P6SM OVC035
     FM012100 24010KT P6SM OVC040
     FM020300 27010KT P6SM SCT120
     FM021200 30008KT P6SM SKC
     FM021700 31004KT P6SM FEW200=



000
FTUS43 KMKX 011133
TAFMSN
TAF
KMSN 011133Z 0112/0212 VRB03KT 5SM -SHSN SCT011 OVC020
      TEMPO 0112/0114 BKN011
     FM011400 21004KT P6SM BKN025
     FM011600 23006KT P6SM BKN035
     FM020100 27008KT P6SM SCT100=



000
FTUS43 KMKX 011110 AAD
TAFMSN
TAF AMD
KMSN 011110Z 0111/0206 00000KT 5SM -SN BR SCT011 OVC023
      TEMPO 0111/0115 BKN011
     FM011500 23007KT P6SM OVC025
     FM012200 25008KT P6SM BKN015
     FM020100 27007KT P6SM SCT110=



000
FTUS43 KMKX 011110 AAD
TAFMSN
TAF AMD
KMSN 011110Z 0111/0206 00000KT 5SM -SN BR SCT011 OVC023
      TEMPO 0111/0115 BKN011
     FM011500 23007KT P6SM OVC025
     FM012200 25008KT P6SM BKN015
     FM020100 27007KT P6SM SCT110=



000
FTUS43 KMKX 011109 AAB
TAFMKE
TAF AMD
KMKE 011109Z 0111/0212 00000KT P6SM BKN007
     FM011400 25006KT P6SM BKN016
     FM011800 24007KT P6SM OVC020
     FM020300 28010KT P6SM SCT025=



000
FTUS43 KMKX 010834 AAC
TAFMSN
TAF AMD
KMSN 010834Z 0109/0206 22003KT 5SM -SN BR OVC009
     FM011600 23007KT P6SM OVC025
     FM012200 25008KT P6SM BKN015
     FM020100 27007KT P6SM SCT110=



000
FTUS43 KMKX 010834 AAC
TAFMSN
TAF AMD
KMSN 010834Z 0109/0206 22003KT 5SM -SN BR OVC009
     FM011600 23007KT P6SM OVC025
     FM012200 25008KT P6SM BKN015
     FM020100 27007KT P6SM SCT110=



000
FTUS43 KMKX 010834 AAC
TAFMSN
TAF AMD
KMSN 010834Z 0109/0206 22003KT 5SM -SN BR OVC009
     FM011600 23007KT P6SM OVC025
     FM012200 25008KT P6SM BKN015
     FM020100 27007KT P6SM SCT110=



000
FTUS43 KMKX 010744 AAA
TAFMKE
TAF AMD
KMKE 010744Z 0108/0212 22005KT P6SM -SN SCT025 BKN050
     FM011000 24004KT P6SM -SN OVC025
     FM011200 25006KT P6SM BKN016
     FM011800 24007KT P6SM OVC020
     FM020300 28010KT P6SM SCT025=



000
FTUS43 KMKX 010744 AAA
TAFMKE
TAF AMD
KMKE 010744Z 0108/0212 22005KT P6SM -SN SCT025 BKN050
     FM011000 24004KT P6SM -SN OVC025
     FM011200 25006KT P6SM BKN016
     FM011800 24007KT P6SM OVC020
     FM020300 28010KT P6SM SCT025=



000
FTUS43 KMKX 010735 AAB
TAFMSN
TAF AMD
KMSN 010735Z 0108/0206 19004KT P6SM SCT006 OVC012
     FM011700 23007KT P6SM OVC025
     FM012200 25008KT P6SM BKN015
     FM020100 27007KT P6SM SCT110=



000
FTUS43 KMKX 010735 AAB
TAFMSN
TAF AMD
KMSN 010735Z 0108/0206 19004KT P6SM SCT006 OVC012
     FM011700 23007KT P6SM OVC025
     FM012200 25008KT P6SM BKN015
     FM020100 27007KT P6SM SCT110=



000
FTUS43 KMKX 010735 AAB
TAFMSN
TAF AMD
KMSN 010735Z 0108/0206 19004KT P6SM SCT006 OVC012
     FM011700 23007KT P6SM OVC025
     FM012200 25008KT P6SM BKN015
     FM020100 27007KT P6SM SCT110=



000
FTUS43 KMKX 010735 AAB
TAFMSN
TAF AMD
KMSN 010735Z 0108/0206 19004KT P6SM SCT006 OVC012
     FM011700 23007KT P6SM OVC025
     FM012200 25008KT P6SM BKN015
     FM020100 27007KT P6SM SCT110=



000
FTUS43 KMKX 010551 AAA
TAFMSN
TAF AMD
KMSN 010551Z 0106/0206 19006KT 4SM -SN BKN019 OVC035
     FM010900 VRB03KT P6SM OVC025
     FM011700 23007KT P6SM OVC025
     FM012200 25008KT P6SM BKN015
     FM020100 27007KT P6SM SCT110=



000
FTUS43 KMKX 010551 AAA
TAFMSN
TAF AMD
KMSN 010551Z 0106/0206 19006KT 4SM -SN BKN019 OVC035
     FM010900 VRB03KT P6SM OVC025
     FM011700 23007KT P6SM OVC025
     FM012200 25008KT P6SM BKN015
     FM020100 27007KT P6SM SCT110=



000
FTUS43 KMKX 010551 AAA
TAFMSN
TAF AMD
KMSN 010551Z 0106/0206 19006KT 4SM -SN BKN019 OVC035
     FM010900 VRB03KT P6SM OVC025
     FM011700 23007KT P6SM OVC025
     FM012200 25008KT P6SM BKN015
     FM020100 27007KT P6SM SCT110=



000
FTUS43 KMKX 010551 AAA
TAFMSN
TAF AMD
KMSN 010551Z 0106/0206 19006KT 4SM -SN BKN019 OVC035
     FM010900 VRB03KT P6SM OVC025
     FM011700 23007KT P6SM OVC025
     FM012200 25008KT P6SM BKN015
     FM020100 27007KT P6SM SCT110=



000
FTUS43 KMKX 010525
TAFMKE
TAF
KMKE 010525Z 0106/0212 19005KT 5SM -SN OVC050
     FM010900 19005KT P6SM OVC050
     FM011500 25006KT P6SM OVC150
     FM011800 24007KT P6SM OVC020
     FM020300 28010KT P6SM SCT025=



000
FTUS43 KMKX 010525
TAFMSN
TAF
KMSN 010525Z 0106/0206 18004KT P6SM -SN OVC050
     FM011000 VRB03KT P6SM OVC035
     FM011700 23007KT P6SM OVC025
     FM012200 25008KT P6SM BKN015
     FM020100 27007KT P6SM SCT110=



000
FTUS43 KMKX 010525
TAFMKE
TAF
KMKE 010525Z 0106/0212 19005KT 5SM -SN OVC050
     FM010900 19005KT P6SM OVC050
     FM011500 25006KT P6SM OVC150
     FM011800 24007KT P6SM OVC020
     FM020300 28010KT P6SM SCT025=



000
FTUS43 KMKX 010525
TAFMSN
TAF
KMSN 010525Z 0106/0206 18004KT P6SM -SN OVC050
     FM011000 VRB03KT P6SM OVC035
     FM011700 23007KT P6SM OVC025
     FM012200 25008KT P6SM BKN015
     FM020100 27007KT P6SM SCT110=



000
FTUS43 KMKX 010357 AAB
TAFMKE
TAF AMD
KMKE 010357Z 0104/0206 20008KT 3SM -SN OVC040
     FM010600 20006KT 6SM -SN SCT020 OVC040
     FM010800 20006KT P6SM OVC040
     FM011900 24008KT P6SM OVC130
     FM012300 25009KT P6SM OVC025
     FM020200 27009KT P6SM BKN110=



000
FTUS43 KMKX 010357 AAB
TAFMKE
TAF AMD
KMKE 010357Z 0104/0206 20008KT 3SM -SN OVC040
     FM010600 20006KT 6SM -SN SCT020 OVC040
     FM010800 20006KT P6SM OVC040
     FM011900 24008KT P6SM OVC130
     FM012300 25009KT P6SM OVC025
     FM020200 27009KT P6SM BKN110=



000
FTUS43 KMKX 010303 AAA
TAFMKE
TAF AMD
KMKE 010303Z 0103/0206 18005KT P6SM -SN OVC060
     FM010500 19006KT 4SM -SN SCT020 OVC040
     FM010800 20006KT P6SM OVC040
     FM011900 24008KT P6SM OVC130
     FM012300 25009KT P6SM OVC025
     FM020200 27009KT P6SM BKN110=



000
FTUS43 KMKX 010303 AAA
TAFMKE
TAF AMD
KMKE 010303Z 0103/0206 18005KT P6SM -SN OVC060
     FM010500 19006KT 4SM -SN SCT020 OVC040
     FM010800 20006KT P6SM OVC040
     FM011900 24008KT P6SM OVC130
     FM012300 25009KT P6SM OVC025
     FM020200 27009KT P6SM BKN110=



000
FTUS43 KMKX 010303 AAA
TAFMKE
TAF AMD
KMKE 010303Z 0103/0206 18005KT P6SM -SN OVC060
     FM010500 19006KT 4SM -SN SCT020 OVC040
     FM010800 20006KT P6SM OVC040
     FM011900 24008KT P6SM OVC130
     FM012300 25009KT P6SM OVC025
     FM020200 27009KT P6SM BKN110=



000
FTUS43 KMKX 010303 AAA
TAFMKE
TAF AMD
KMKE 010303Z 0103/0206 18005KT P6SM -SN OVC060
     FM010500 19006KT 4SM -SN SCT020 OVC040
     FM010800 20006KT P6SM OVC040
     FM011900 24008KT P6SM OVC130
     FM012300 25009KT P6SM OVC025
     FM020200 27009KT P6SM BKN110=



000
FTUS43 KMKX 282320
TAFMKE
TAF
KMKE 282320Z 0100/0206 17006KT P6SM BKN090
     FM010500 19006KT 4SM -SN SCT020 OVC040
     FM010800 20006KT P6SM OVC040
     FM011900 24008KT P6SM OVC130
     FM012300 25009KT P6SM OVC025
     FM020200 27009KT P6SM BKN110=



000
FTUS43 KMKX 282320
TAFMSN
TAF
KMSN 282320Z 0100/0124 16005KT P6SM BKN080
     FM010400 16006KT 6SM -SN OVC040
     FM010900 20004KT P6SM OVC020
     FM011000 20004KT P6SM OVC050
     FM011800 24008KT P6SM OVC025=



000
FTUS43 KMKX 282320
TAFMKE
TAF
KMKE 282320Z 0100/0206 17006KT P6SM BKN090
     FM010500 19006KT 4SM -SN SCT020 OVC040
     FM010800 20006KT P6SM OVC040
     FM011900 24008KT P6SM OVC130
     FM012300 25009KT P6SM OVC025
     FM020200 27009KT P6SM BKN110=



000
FTUS43 KMKX 282320
TAFMSN
TAF
KMSN 282320Z 0100/0124 16005KT P6SM BKN080
     FM010400 16006KT 6SM -SN OVC040
     FM010900 20004KT P6SM OVC020
     FM011000 20004KT P6SM OVC050
     FM011800 24008KT P6SM OVC025=



000
FTUS43 KMKX 282320
TAFMKE
TAF
KMKE 282320Z 0100/0206 17006KT P6SM BKN090
     FM010500 19006KT 4SM -SN SCT020 OVC040
     FM010800 20006KT P6SM OVC040
     FM011900 24008KT P6SM OVC130
     FM012300 25009KT P6SM OVC025
     FM020200 27009KT P6SM BKN110=



000
FTUS43 KMKX 282320
TAFMSN
TAF
KMSN 282320Z 0100/0124 16005KT P6SM BKN080
     FM010400 16006KT 6SM -SN OVC040
     FM010900 20004KT P6SM OVC020
     FM011000 20004KT P6SM OVC050
     FM011800 24008KT P6SM OVC025=



000
FTUS43 KMKX 282320
TAFMKE
TAF
KMKE 282320Z 0100/0206 17006KT P6SM BKN090
     FM010500 19006KT 4SM -SN SCT020 OVC040
     FM010800 20006KT P6SM OVC040
     FM011900 24008KT P6SM OVC130
     FM012300 25009KT P6SM OVC025
     FM020200 27009KT P6SM BKN110=



000
FTUS43 KMKX 282320
TAFMSN
TAF
KMSN 282320Z 0100/0124 16005KT P6SM BKN080
     FM010400 16006KT 6SM -SN OVC040
     FM010900 20004KT P6SM OVC020
     FM011000 20004KT P6SM OVC050
     FM011800 24008KT P6SM OVC025=



000
FTUS43 KMKX 282059 AAA
TAFMSN
TAF AMD
KMSN 282059Z 2821/0118 19009KT P6SM SKC
     FM010100 17005KT P6SM BKN110
     FM010400 VRB03KT P6SM -SN OVC040
     FM010800 VRB03KT P6SM OVC025
     FM011700 23007KT P6SM OVC025=



000
FTUS43 KMKX 282059 AAA
TAFMSN
TAF AMD
KMSN 282059Z 2821/0118 19009KT P6SM SKC
     FM010100 17005KT P6SM BKN110
     FM010400 VRB03KT P6SM -SN OVC040
     FM010800 VRB03KT P6SM OVC025
     FM011700 23007KT P6SM OVC025=



000
FTUS43 KMKX 282059 AAA
TAFMKE
TAF AMD
KMKE 282059Z 2821/0124 20009KT P6SM SKC
     FM010100 18005KT P6SM OVC080
     FM010300 18005KT 6SM -SN OVC025
     FM010800 21005KT P6SM OVC020
     FM011400 23006KT P6SM OVC025=



000
FTUS43 KMKX 282059 AAA
TAFMKE
TAF AMD
KMKE 282059Z 2821/0124 20009KT P6SM SKC
     FM010100 18005KT P6SM OVC080
     FM010300 18005KT 6SM -SN OVC025
     FM010800 21005KT P6SM OVC020
     FM011400 23006KT P6SM OVC025=



000
FTUS43 KMKX 281730
TAFMSN
TAF
KMSN 281730Z 2818/0118 19009KT P6SM SKC
     FM010100 17005KT P6SM BKN110
     FM010400 VRB03KT P6SM -SN OVC040
     FM010800 VRB03KT P6SM OVC025
     FM011700 23007KT P6SM OVC025=



000
FTUS43 KMKX 281730
TAFMSN
TAF
KMSN 281730Z 2818/0118 19009KT P6SM SKC
     FM010100 17005KT P6SM BKN110
     FM010400 VRB03KT P6SM -SN OVC040
     FM010800 VRB03KT P6SM OVC025
     FM011700 23007KT P6SM OVC025=



000
FTUS43 KMKX 281730
TAFMKE
TAF
KMKE 281730Z 2818/0124 21009KT P6SM SKC
     FM010100 18005KT P6SM OVC080
     FM010300 18005KT 6SM -SN OVC025
     FM010800 21005KT P6SM OVC020
     FM011400 23006KT P6SM OVC025=



000
FTUS43 KMKX 281730
TAFMSN
TAF
KMSN 281730Z 2818/0118 19009KT P6SM SKC
     FM010100 17005KT P6SM BKN110
     FM010400 VRB03KT P6SM -SN OVC040
     FM010800 VRB03KT P6SM OVC025
     FM011700 23007KT P6SM OVC025=



000
FTUS43 KMKX 281730
TAFMKE
TAF
KMKE 281730Z 2818/0124 21009KT P6SM SKC
     FM010100 18005KT P6SM OVC080
     FM010300 18005KT 6SM -SN OVC025
     FM010800 21005KT P6SM OVC020
     FM011400 23006KT P6SM OVC025=



000
FTUS43 KMKX 281730
TAFMKE
TAF
KMKE 281730Z 2818/0124 21009KT P6SM SKC
     FM010100 18005KT P6SM OVC080
     FM010300 18005KT 6SM -SN OVC025
     FM010800 21005KT P6SM OVC020
     FM011400 23006KT P6SM OVC025=



000
FTUS43 KMKX 281730
TAFMSN
TAF
KMSN 281730Z 2818/0118 19009KT P6SM SKC
     FM010100 17005KT P6SM BKN110
     FM010400 VRB03KT P6SM -SN OVC040
     FM010800 VRB03KT P6SM OVC025
     FM011700 23007KT P6SM OVC025=



000
FTUS43 KMKX 281456 AAA
TAFMKE
TAF AMD
KMKE 281456Z 2815/0118 22004KT P6SM SKC
     FM281700 21007KT P6SM SKC
     FM010200 18005KT P6SM OVC080
      TEMPO 0104/0105 6SM -SN OVC050
     FM010500 22006KT P6SM OVC025
      TEMPO 0105/0107 6SM -SN=



000
FTUS43 KMKX 281456 AAA
TAFMKE
TAF AMD
KMKE 281456Z 2815/0118 22004KT P6SM SKC
     FM281700 21007KT P6SM SKC
     FM010200 18005KT P6SM OVC080
      TEMPO 0104/0105 6SM -SN OVC050
     FM010500 22006KT P6SM OVC025
      TEMPO 0105/0107 6SM -SN=



000
FTUS43 KMKX 281455 AAA
TAFMSN
TAF AMD
KMSN 281455Z 2815/0112 18006KT P6SM SKC
     FM010100 17005KT P6SM BKN110
     FM010300 17005KT P6SM OVC040
      TEMPO 0103/0105 6SM -SN
     FM010500 18004KT P6SM OVC030
      TEMPO 0105/0106 6SM -SN=



000
FTUS43 KMKX 281455 AAA
TAFMSN
TAF AMD
KMSN 281455Z 2815/0112 18006KT P6SM SKC
     FM010100 17005KT P6SM BKN110
     FM010300 17005KT P6SM OVC040
      TEMPO 0103/0105 6SM -SN
     FM010500 18004KT P6SM OVC030
      TEMPO 0105/0106 6SM -SN=



000
FTUS43 KMKX 281137
TAFMSN
TAF
KMSN 281137Z 2812/0112 00000KT P6SM SKC
     FM281600 19006KT P6SM SKC
     FM010100 17005KT P6SM BKN110
     FM010300 17005KT P6SM OVC040
      TEMPO 0103/0105 6SM -SN
     FM010500 18004KT P6SM OVC030
      TEMPO 0105/0106 6SM -SN=



000
FTUS43 KMKX 281137
TAFMKE
TAF
KMKE 281137Z 2812/0118 22003KT P6SM SKC
     FM281700 21007KT P6SM SKC
     FM010200 18005KT P6SM OVC080
      TEMPO 0104/0105 6SM -SN OVC050
     FM010500 22006KT P6SM OVC025
      TEMPO 0105/0107 6SM -SN=



000
FTUS43 KMKX 281137
TAFMKE
TAF
KMKE 281137Z 2812/0118 22003KT P6SM SKC
     FM281700 21007KT P6SM SKC
     FM010200 18005KT P6SM OVC080
      TEMPO 0104/0105 6SM -SN OVC050
     FM010500 22006KT P6SM OVC025
      TEMPO 0105/0107 6SM -SN=



000
FTUS43 KMKX 281137
TAFMSN
TAF
KMSN 281137Z 2812/0112 00000KT P6SM SKC
     FM281600 19006KT P6SM SKC
     FM010100 17005KT P6SM BKN110
     FM010300 17005KT P6SM OVC040
      TEMPO 0103/0105 6SM -SN
     FM010500 18004KT P6SM OVC030
      TEMPO 0105/0106 6SM -SN=



000
FTUS43 KMKX 280930 AAA
TAFMKE
TAF AMD
KMKE 280930Z 2810/0112 24005KT P6SM SKC
     FM281800 20008KT P6SM SKC
     FM282300 18007KT P6SM SCT080
     FM010000 17006KT P6SM BKN070
     FM010600 20006KT 3SM -SN OVC015=



000
FTUS43 KMKX 280520
TAFMKE
TAF
KMKE 280520Z 2806/0112 24006KT P6SM SKC
     FM282300 18007KT P6SM SCT080
     FM010000 17006KT P6SM BKN070
     FM010600 20006KT 3SM -SN OVC015=



000
FTUS43 KMKX 280520
TAFMSN
TAF
KMSN 280520Z 2806/0106 20003KT P6SM SKC
     FM281800 19007KT P6SM SCT200
     FM282300 17006KT P6SM BKN080
     FM010400 18005KT 3SM -SN OVC015=



000
FTUS43 KMKX 280520
TAFMSN
TAF
KMSN 280520Z 2806/0106 20003KT P6SM SKC
     FM281800 19007KT P6SM SCT200
     FM282300 17006KT P6SM BKN080
     FM010400 18005KT 3SM -SN OVC015=



000
FTUS43 KMKX 280520
TAFMKE
TAF
KMKE 280520Z 2806/0112 24006KT P6SM SKC
     FM282300 18007KT P6SM SCT080
     FM010000 17006KT P6SM BKN070
     FM010600 20006KT 3SM -SN OVC015=



000
FTUS43 KMKX 280520
TAFMKE
TAF
KMKE 280520Z 2806/0112 24006KT P6SM SKC
     FM282300 18007KT P6SM SCT080
     FM010000 17006KT P6SM BKN070
     FM010600 20006KT 3SM -SN OVC015=



000
FTUS43 KMKX 280520
TAFMSN
TAF
KMSN 280520Z 2806/0106 20003KT P6SM SKC
     FM281800 19007KT P6SM SCT200
     FM282300 17006KT P6SM BKN080
     FM010400 18005KT 3SM -SN OVC015=



000
FTUS43 KMKX 280520
TAFMSN
TAF
KMSN 280520Z 2806/0106 20003KT P6SM SKC
     FM281800 19007KT P6SM SCT200
     FM282300 17006KT P6SM BKN080
     FM010400 18005KT 3SM -SN OVC015=



000
FTUS43 KMKX 280520
TAFMKE
TAF
KMKE 280520Z 2806/0112 24006KT P6SM SKC
     FM282300 18007KT P6SM SCT080
     FM010000 17006KT P6SM BKN070
     FM010600 20006KT 3SM -SN OVC015=



000
FTUS43 KMKX 272320
TAFMKE
TAF
KMKE 272320Z 2800/0106 25006KT P6SM SKC
     FM281900 19008KT P6SM SKC
     FM010000 18006KT P6SM BKN150=



000
FTUS43 KMKX 272320
TAFMSN
TAF
KMSN 272320Z 2800/2824 21005KT P6SM SKC
     FM280500 20003KT P6SM SKC
     FM282100 18005KT P6SM BKN150=



000
FTUS43 KMKX 272320
TAFMKE
TAF
KMKE 272320Z 2800/0106 25006KT P6SM SKC
     FM281900 19008KT P6SM SKC
     FM010000 18006KT P6SM BKN150=



000
FTUS43 KMKX 272320
TAFMKE
TAF
KMKE 272320Z 2800/0106 25006KT P6SM SKC
     FM281900 19008KT P6SM SKC
     FM010000 18006KT P6SM BKN150=



000
FTUS43 KMKX 272053 AAC
TAFMKE
TAF AMD
KMKE 272053Z 2721/2824 25006KT P6SM SKC
     FM281900 20008KT P6SM FEW250=



000
FTUS43 KMKX 272053 AAC
TAFMKE
TAF AMD
KMKE 272053Z 2721/2824 25006KT P6SM SKC
     FM281900 20008KT P6SM FEW250=



000
FTUS43 KMKX 272053 AAC
TAFMKE
TAF AMD
KMKE 272053Z 2721/2824 25006KT P6SM SKC
     FM281900 20008KT P6SM FEW250=



000
FTUS43 KMKX 272053 AAC
TAFMKE
TAF AMD
KMKE 272053Z 2721/2824 25006KT P6SM SKC
     FM281900 20008KT P6SM FEW250=



000
FTUS43 KMKX 272046 AAC
TAFMSN
TAF AMD
KMSN 272046Z 2721/2818 21005KT P6SM SKC
     FM280500 VRB03KT P6SM SKC
     FM281400 19004KT P6SM SKC=



000
FTUS43 KMKX 272046 AAC
TAFMSN
TAF AMD
KMSN 272046Z 2721/2818 21005KT P6SM SKC
     FM280500 VRB03KT P6SM SKC
     FM281400 19004KT P6SM SKC=



000
FTUS43 KMKX 272046 AAC
TAFMSN
TAF AMD
KMSN 272046Z 2721/2818 21005KT P6SM SKC
     FM280500 VRB03KT P6SM SKC
     FM281400 19004KT P6SM SKC=



000
FTUS43 KMKX 272046 AAC
TAFMSN
TAF AMD
KMSN 272046Z 2721/2818 21005KT P6SM SKC
     FM280500 VRB03KT P6SM SKC
     FM281400 19004KT P6SM SKC=



000
FTUS43 KMKX 271733 AAB
TAFMKE
TAF AMD
KMKE 271733Z 2718/2824 25005KT P6SM SKC
     FM281900 22007KT P6SM FEW250=



000
FTUS43 KMKX 271733 AAB
TAFMSN
TAF AMD
KMSN 271733Z 2718/2818 25006KT P6SM SKC
     FM280500 00000KT P6SM SKC
     FM281400 19004KT P6SM SKC=



000
FTUS43 KMKX 271733 AAB
TAFMKE
TAF AMD
KMKE 271733Z 2718/2824 25005KT P6SM SKC
     FM281900 22007KT P6SM FEW250=



000
FTUS43 KMKX 271733 AAB
TAFMSN
TAF AMD
KMSN 271733Z 2718/2818 25006KT P6SM SKC
     FM280500 00000KT P6SM SKC
     FM281400 19004KT P6SM SKC=



000
FTUS43 KMKX 271456 AAA
TAFMSN
TAF AMD
KMSN 271456Z 2715/2812 29004KT P6SM SKC
     FM271600 26007KT P6SM FEW025
     FM280200 23003KT P6SM SKC=



000
FTUS43 KMKX 271456 AAA
TAFMSN
TAF AMD
KMSN 271456Z 2715/2812 29004KT P6SM SKC
     FM271600 26007KT P6SM FEW025
     FM280200 23003KT P6SM SKC=



000
FTUS43 KMKX 271456 AAA
TAFMKE
TAF AMD
KMKE 271456Z 2715/2818 29006KT P6SM SKC
     FM271800 27009KT P6SM FEW025
     FM280200 24005KT P6SM SKC=



000
FTUS43 KMKX 271456 AAA
TAFMKE
TAF AMD
KMKE 271456Z 2715/2818 29006KT P6SM SKC
     FM271800 27009KT P6SM FEW025
     FM280200 24005KT P6SM SKC=



000
FTUS43 KMKX 271456 AAA
TAFMKE
TAF AMD
KMKE 271456Z 2715/2818 29006KT P6SM SKC
     FM271800 27009KT P6SM FEW025
     FM280200 24005KT P6SM SKC=



000
FTUS43 KMKX 271456 AAA
TAFMSN
TAF AMD
KMSN 271456Z 2715/2812 29004KT P6SM SKC
     FM271600 26007KT P6SM FEW025
     FM280200 23003KT P6SM SKC=



000
FTUS43 KMKX 271456 AAA
TAFMKE
TAF AMD
KMKE 271456Z 2715/2818 29006KT P6SM SKC
     FM271800 27009KT P6SM FEW025
     FM280200 24005KT P6SM SKC=



000
FTUS43 KMKX 271456 AAA
TAFMSN
TAF AMD
KMSN 271456Z 2715/2812 29004KT P6SM SKC
     FM271600 26007KT P6SM FEW025
     FM280200 23003KT P6SM SKC=



000
FTUS43 KMKX 271120
TAFMKE
TAF
KMKE 271120Z 2712/2818 29006KT P6SM SKC
     FM271800 27009KT P6SM FEW030
     FM280200 24005KT P6SM SKC=



000
FTUS43 KMKX 271120
TAFMKE
TAF
KMKE 271120Z 2712/2818 29006KT P6SM SKC
     FM271800 27009KT P6SM FEW030
     FM280200 24005KT P6SM SKC=



000
FTUS43 KMKX 271120
TAFMSN
TAF
KMSN 271120Z 2712/2812 29004KT P6SM SKC
     FM271600 28007KT P6SM FEW030
     FM280200 23003KT P6SM SKC=



000
FTUS43 KMKX 271120
TAFMSN
TAF
KMSN 271120Z 2712/2812 29004KT P6SM SKC
     FM271600 28007KT P6SM FEW030
     FM280200 23003KT P6SM SKC=



000
FTUS43 KMKX 270845 AAA
TAFMKE
TAF AMD
KMKE 270845Z 2709/2812 29005KT P6SM SKC
     FM271700 27008KT P6SM FEW040
     FM280000 24006KT P6SM FEW040=



000
FTUS43 KMKX 270845 AAA
TAFMKE
TAF AMD
KMKE 270845Z 2709/2812 29005KT P6SM SKC
     FM271700 27008KT P6SM FEW040
     FM280000 24006KT P6SM FEW040=



000
FTUS43 KMKX 270540
TAFMSN
TAF
KMSN 270540Z 2706/2806 29003KT P6SM SKC
     FM271800 26007KT P6SM FEW040
     FM280000 23004KT P6SM SKC=



000
FTUS43 KMKX 270540
TAFMKE
TAF
KMKE 270540Z 2706/2812 29003KT P6SM SKC
     FM271700 27008KT P6SM FEW040
     FM280000 24006KT P6SM FEW040=



000
FTUS43 KMKX 270540
TAFMKE
TAF
KMKE 270540Z 2706/2812 29003KT P6SM SKC
     FM271700 27008KT P6SM FEW040
     FM280000 24006KT P6SM FEW040=



000
FTUS43 KMKX 270540
TAFMSN
TAF
KMSN 270540Z 2706/2806 29003KT P6SM SKC
     FM271800 26007KT P6SM FEW040
     FM280000 23004KT P6SM SKC=



000
FTUS43 KMKX 270310 AAA
TAFMKE
TAF AMD
KMKE 270310Z 2703/2806 30004KT P6SM SKC
     FM271700 27008KT P6SM FEW040
     FM280000 24006KT P6SM FEW040=



000
FTUS43 KMKX 262337
TAFMSN
TAF
KMSN 262337Z 2700/2724 32005KT P6SM SCT045
     FM270300 30003KT P6SM FEW045
     FM271800 26007KT P6SM FEW040=



000
FTUS43 KMKX 262337
TAFMKE
TAF
KMKE 262337Z 2700/2806 33008KT P6SM FEW040
     FM270300 30005KT P6SM FEW040
     FM271700 27008KT P6SM FEW040
     FM280000 24006KT P6SM FEW040=



000
FTUS43 KMKX 262337
TAFMSN
TAF
KMSN 262337Z 2700/2724 32005KT P6SM SCT045
     FM270300 30003KT P6SM FEW045
     FM271800 26007KT P6SM FEW040=



000
FTUS43 KMKX 262337
TAFMKE
TAF
KMKE 262337Z 2700/2806 33008KT P6SM FEW040
     FM270300 30005KT P6SM FEW040
     FM271700 27008KT P6SM FEW040
     FM280000 24006KT P6SM FEW040=



000
FTUS43 KMKX 262107 AAA
TAFMSN
TAF AMD
KMSN 262107Z 2621/2718 33008KT P6SM BKN040
     FM270000 33007KT P6SM SCT025
     FM271700 27007KT P6SM FEW250=



000
FTUS43 KMKX 262107 AAA
TAFMSN
TAF AMD
KMSN 262107Z 2621/2718 33008KT P6SM BKN040
     FM270000 33007KT P6SM SCT025
     FM271700 27007KT P6SM FEW250=



    US Dept of Commerce
    National Oceanic and Atmospheric Administration
    National Weather Service
    1325 East West Highway
    Silver Spring, MD 20910
    Page Author: NWS Internet Services Team
Disclaimer
Information Quality
Credits
Glossary
Privacy Policy
Freedom of Information Act (FOIA)
About Us
Career Opportunities